M I D A S
Marine Information and Data Acquisition System
Tripno 393 of the Zeeleeuw from 2002-11-12 07:59:55 to 2002-11-12 11:26:10
Back to CruiseResearch ActivitiesStationsMapUnderway DataData graphs

EquipmentUnitsComments
TimeDGPSUTC
LatitudeDGPSDM.mWGS84
LongitudeDGPSDM.mWGS84
SpeedMeteo Stationm/sRelative wind speed
DirectionMeteo StationdegRelative wind direction
TemperatureMeteo Stationdeg CelciusAir temperature
PressureMeteo StationPaAtmospheric pressure
HumidityMeteo Station%Relative humidity
Missing or incorrect values are displayed as -999
Metereological data collected by the RV Zeeleeuw from 2002-11-12 07:59:55 to 2002-11-12 11:26:10
Time Latitude Longitude Speed Direction Temperature Pressure Humidity
2002-11-12 08:00 51°13.832 2°55.634 4.7 19 8.5 100570 89
2002-11-12 08:01 51°13.921 2°55.566 3.6 24 8.5 100560 89
2002-11-12 08:02 51°14.03 2°55.485 0.6 334 8.5 100550 89
2002-11-12 08:03 51°14.144 2°55.396 1.4 15 8.5 100550 89
2002-11-12 08:04 51°14.247 2°55.275 3.6 278 8.5 100550 89
2002-11-12 08:05 51°14.334 2°55.112 5 300 8.6 100540 89
2002-11-12 08:06 51°14.416 2°54.896 9.7 293 8.6 100560 89
2002-11-12 08:07 51°14.424 2°54.612 11.3 294 8.6 100510 89
2002-11-12 08:08 51°14.36 2°54.352 14.9 280 8.7 100480 89
2002-11-12 08:09 51°14.279 2°54.105 16.1 265 8.7 100470 89
2002-11-12 08:10 51°14.196 2°53.848 16.6 267 8.7 100490 89
2002-11-12 08:11 51°14.116 2°53.598 14.7 273 8.7 100490 89
2002-11-12 08:12 51°14.034 2°53.34 16.9 270 8.7 100480 89
2002-11-12 08:13 51°13.962 2°53.078 16.1 279 8.8 100490 89
2002-11-12 08:14 51°13.887 2°52.817 13.2 276 8.8 100480 88
2002-11-12 08:15 51°13.808 2°52.559 13.3 269 8.8 100490 88
2002-11-12 08:16 51°13.729 2°52.299 13.8 270 8.8 100490 88
2002-11-12 08:17 51°13.65 2°52.039 15.6 278 8.8 100480 88
2002-11-12 08:18 51°13.569 2°51.779 13.7 278 8.9 100490 89
2002-11-12 08:19 51°13.49 2°51.519 16.9 272 8.9 100480 88
2002-11-12 08:20 51°13.41 2°51.264 16.3 278 8.9 100490 88
2002-11-12 08:21 51°13.328 2°51.006 14.1 272 8.9 100470 89
2002-11-12 08:22 51°13.248 2°50.752 14 274 8.9 100480 89
2002-11-12 08:23 51°13.168 2°50.494 14.5 274 8.9 100460 89
2002-11-12 08:24 51°13.087 2°50.238 17.6 275 8.9 100460 89
2002-11-12 08:25 51°13.002 2°49.986 16.8 277 8.9 100470 89
2002-11-12 08:26 51°12.917 2°49.734 15.8 279 8.9 100470 89
2002-11-12 08:27 51°12.834 2°49.479 15 274 8.9 100470 88
2002-11-12 08:28 51°12.752 2°49.225 15.6 279 8.9 100470 88
2002-11-12 08:29 51°12.672 2°48.973 17 275 8.9 100470 88
2002-11-12 08:30 51°12.588 2°48.715 14 280 8.9 100470 88
2002-11-12 08:31 51°12.505 2°48.459 15.5 271 9 100460 89
2002-11-12 08:32 51°12.423 2°48.204 16.9 279 9 100460 88
2002-11-12 08:33 51°12.34 2°47.949 18.1 272 9 100460 88
2002-11-12 08:34 51°12.258 2°47.694 17.4 283 9 100470 88
2002-11-12 08:35 51°12.177 2°47.438 15.7 275 9 100450 88
2002-11-12 08:36 51°12.095 2°47.181 16 280 9.1 100450 88
2002-11-12 08:37 51°12.013 2°46.927 16.5 275 9.1 100440 88
2002-11-12 08:38 51°11.932 2°46.674 16.4 277 9.1 100440 89
2002-11-12 08:39 51°11.851 2°46.42 18.2 278 9.1 100440 88
2002-11-12 08:40 51°11.77 2°46.164 16.2 274 9.1 100430 88
2002-11-12 08:41 51°11.69 2°45.91 16.7 277 9.1 100430 88
2002-11-12 08:42 51°11.61 2°45.657 15.9 274 9.1 100430 88
2002-11-12 08:43 51°11.532 2°45.406 16.5 280 9.1 100420 88
2002-11-12 08:44 51°11.46 2°45.137 14.3 278 9.2 100420 88
2002-11-12 08:45 51°11.392 2°44.872 18.4 279 9.2 100430 88
2002-11-12 08:46 51°11.328 2°44.604 18.5 275 9.2 100410 88
2002-11-12 08:47 51°11.263 2°44.334 17 282 9.3 100430 88
2002-11-12 08:48 51°11.198 2°44.061 17.5 280 9.3 100420 87
2002-11-12 08:49 51°11.133 2°43.79 15.3 279 9.3 100420 88
2002-11-12 08:50 51°11.076 2°43.537 15.3 299 9.3 100440 87
2002-11-12 08:51 51°11.115 2°43.416 11.9 28 9.3 100480 87
2002-11-12 08:52 51°11.185 2°43.437 11.7 108 9.3 100500 87
2002-11-12 08:53 51°11.212 2°43.531 13.8 143 9.4 100480 87
2002-11-12 08:54 51°11.221 2°43.645 13 162 9.4 100460 87
2002-11-12 08:55 51°11.198 2°43.743 11.6 198 9.3 100460 87
2002-11-12 08:57 51°11.202 2°43.764 10.4 192 9.3 100470 87
2002-11-12 08:57 51°11.211 2°43.788 13.5 175 9.3 100450 87
2002-11-12 08:58 51°11.222 2°43.82 11.5 162 9.4 100460 87
2002-11-12 08:59 51°11.228 2°43.846 13.8 161 9.4 100460 87
2002-11-12 09:00 51°11.24 2°43.868 10.2 152 9.4 100470 87
2002-11-12 09:01 51°11.253 2°43.89 12.8 155 9.4 100450 87
2002-11-12 09:02 51°11.267 2°43.911 10.7 147 9.4 100460 87
2002-11-12 09:03 51°11.282 2°43.93 9.6 141 9.4 100460 87
2002-11-12 09:04 51°11.297 2°43.949 10.8 140 9.4 100460 87
2002-11-12 09:05 51°11.311 2°43.968 10.4 139 9.5 100460 87
2002-11-12 09:06 51°11.326 2°43.986 10.8 145 9.5 100460 87
2002-11-12 09:07 51°11.34 2°44.002 10.1 142 9.5 100460 87
2002-11-12 09:08 51°11.352 2°44.03 10.7 160 9.5 100460 87
2002-11-12 09:09 51°11.363 2°44.054 9.3 159 9.5 100470 87
2002-11-12 09:10 51°11.376 2°44.075 12.1 158 9.6 100460 87
2002-11-12 09:11 51°11.39 2°44.095 11.2 143 9.5 100460 87
2002-11-12 09:12 51°11.402 2°44.113 9.4 152 9.5 100460 87
2002-11-12 09:13 51°11.415 2°44.132 9.5 155 9.6 100460 87
2002-11-12 09:14 51°11.43 2°44.149 10.7 145 9.6 100440 87
2002-11-12 09:15 51°11.446 2°44.166 10.3 146 9.6 100460 87
2002-11-12 09:16 51°11.46 2°44.183 10.5 146 9.6 100460 86
2002-11-12 09:17 51°11.474 2°44.198 11.3 152 9.6 100460 87
2002-11-12 09:18 51°11.49 2°44.216 10.2 143 9.6 100450 86
2002-11-12 09:19 51°11.499 2°44.25 10.8 180 9.6 100450 86
2002-11-12 09:20 51°11.431 2°44.29 14.9 262 9.7 100470 86
2002-11-12 09:21 51°11.357 2°44.046 15.4 272 9.6 100410 86
2002-11-12 09:22 51°11.276 2°43.724 17.8 281 9.7 100410 86
2002-11-12 09:23 51°11.185 2°43.405 16.3 273 9.7 100410 86
2002-11-12 09:24 51°11.074 2°43.107 16.5 269 9.7 100400 86
2002-11-12 09:25 51°10.958 2°42.811 16 271 9.8 100410 86
2002-11-12 09:26 51°10.84 2°42.513 17 273 9.8 100420 86
2002-11-12 09:27 51°10.723 2°42.215 16.6 271 9.8 100400 86
2002-11-12 09:28 51°10.612 2°41.927 18.8 271 9.8 100410 86
2002-11-12 09:29 51°10.52 2°41.667 15.8 274 9.8 100400 85
2002-11-12 09:30 51°10.433 2°41.408 16.6 274 9.8 100390 86
2002-11-12 09:31 51°10.348 2°41.153 15.3 273 9.9 100400 85
2002-11-12 09:32 51°10.259 2°40.89 14.2 276 9.9 100400 85
2002-11-12 09:33 51°10.171 2°40.63 16.8 272 9.9 100390 85
2002-11-12 09:34 51°10.084 2°40.369 14.9 273 10 100380 85
2002-11-12 09:35 51°9.995 2°40.107 16.3 272 10 100390 85
2002-11-12 09:36 51°9.907 2°39.846 17.1 280 10.1 100390 85
2002-11-12 09:37 51°9.822 2°39.59 17.9 273 10.1 100370 85
2002-11-12 09:38 51°9.732 2°39.326 18.7 277 10.1 100380 84
2002-11-12 09:39 51°9.65 2°39.059 17.7 277 10.1 100370 84
2002-11-12 09:40 51°9.572 2°38.79 19.1 280 10.1 100370 84
2002-11-12 09:41 51°9.494 2°38.521 18.1 278 10.1 100360 84
2002-11-12 09:42 51°9.416 2°38.254 17.5 274 10.1 100370 84
2002-11-12 09:43 51°9.337 2°37.986 16.9 272 10.2 100360 84
2002-11-12 09:44 51°9.262 2°37.715 16.6 276 10.2 100370 84
2002-11-12 09:45 51°9.192 2°37.439 14.3 277 10.2 100370 84
2002-11-12 09:46 51°9.122 2°37.162 15.9 283 10.2 100390 84
2002-11-12 09:47 51°9.066 2°36.876 15.7 287 10.2 100380 84
2002-11-12 09:48 51°9.011 2°36.588 16.2 282 10.2 100390 84
2002-11-12 09:49 51°8.955 2°36.299 15.1 283 10.2 100370 84
2002-11-12 09:50 51°8.898 2°36.012 15.2 286 10.3 100380 84
2002-11-12 09:51 51°8.841 2°35.723 14.3 285 10.3 100380 84
2002-11-12 09:52 51°8.783 2°35.436 13.6 281 10.3 100390 84
2002-11-12 09:53 51°8.759 2°35.14 10.9 298 10.3 100400 84
2002-11-12 09:54 51°8.832 2°34.856 3.2 325 10.4 100410 84
2002-11-12 09:55 51°8.971 2°34.638 2.2 5 10.4 100430 84
2002-11-12 09:56 51°9.149 2°34.515 3.5 36 10.5 100430 84
2002-11-12 09:57 51°9.342 2°34.502 4.7 72 10.5 100440 84
2002-11-12 09:58 51°9.538 2°34.529 4.1 64 10.5 100430 84
2002-11-12 09:59 51°9.736 2°34.546 5.7 53 10.5 100430 84
2002-11-12 10:00 51°9.934 2°34.58 5.2 48 10.4 100440 83
2002-11-12 10:01 51°10.124 2°34.665 6 106 10.5 100430 83
2002-11-12 10:02 51°10.281 2°34.851 9.7 142 10.5 100410 83
2002-11-12 10:03 51°10.415 2°35.078 7.7 149 10.5 100410 83
2002-11-12 10:04 51°10.549 2°35.305 7.6 134 10.6 100410 84
2002-11-12 10:05 51°10.68 2°35.537 7.4 147 10.5 100400 84
2002-11-12 10:06 51°10.803 2°35.775 9.8 137 10.6 100400 84
2002-11-12 10:07 51°10.919 2°36.023 10.7 139 10.6 100400 84
2002-11-12 10:08 51°11.034 2°36.273 10.7 128 10.5 100390 84
2002-11-12 10:09 51°11.15 2°36.521 9.8 145 10.5 100390 84
2002-11-12 10:10 51°11.259 2°36.776 10.6 139 10.5 100380 84
2002-11-12 10:11 51°11.367 2°37.031 10.5 128 10.6 100380 84
2002-11-12 10:12 51°11.475 2°37.284 10.2 132 10.5 100360 84
2002-11-12 10:13 51°11.584 2°37.536 11.4 128 10.5 100370 84
2002-11-12 10:14 51°11.694 2°37.79 12.1 141 10.5 100380 84
2002-11-12 10:15 51°11.803 2°38.044 10.7 132 10.6 100370 84
2002-11-12 10:16 51°11.913 2°38.296 10.7 130 10.6 100370 84
2002-11-12 10:17 51°12.022 2°38.551 11.2 134 10.6 100370 84
2002-11-12 10:18 51°12.131 2°38.804 9.3 126 10.6 100370 84
2002-11-12 10:19 51°12.24 2°39.058 10.3 135 10.6 100350 83
2002-11-12 10:20 51°12.35 2°39.31 12.7 130 10.6 100370 84
2002-11-12 10:21 51°12.45 2°39.571 10.5 127 10.6 100360 84
2002-11-12 10:22 51°12.541 2°39.839 10.2 139 10.7 100360 84
2002-11-12 10:23 51°12.631 2°40.107 10.8 135 10.7 100350 83
2002-11-12 10:24 51°12.721 2°40.375 9 133 10.8 100350 84
2002-11-12 10:25 51°12.808 2°40.643 13.1 142 10.7 100350 83
2002-11-12 10:26 51°12.894 2°40.911 11.1 135 10.7 100350 83
2002-11-12 10:27 51°12.979 2°41.178 10.5 147 10.8 100340 83
2002-11-12 10:28 51°13.063 2°41.445 12.9 139 10.8 100350 82
2002-11-12 10:29 51°13.148 2°41.712 10.8 129 10.8 100360 83
2002-11-12 10:30 51°13.234 2°41.981 11.1 133 10.8 100340 83
2002-11-12 10:31 51°13.321 2°42.252 12.3 132 10.8 100330 83
2002-11-12 10:32 51°13.409 2°42.522 13.6 131 10.8 100330 83
2002-11-12 10:33 51°13.492 2°42.793 13.3 137 10.9 100330 83
2002-11-12 10:34 51°13.565 2°43.069 11.5 141 10.8 100320 82
2002-11-12 10:35 51°13.638 2°43.346 11.3 141 10.9 100330 82
2002-11-12 10:36 51°13.713 2°43.623 12.6 136 10.9 100340 82
2002-11-12 10:37 51°13.785 2°43.901 13 148 10.9 100330 82
2002-11-12 10:38 51°13.858 2°44.177 11.8 134 11 100340 83
2002-11-12 10:39 51°13.926 2°44.46 11.8 139 10.9 100330 82
2002-11-12 10:40 51°13.995 2°44.744 11.6 145 10.9 100340 83
2002-11-12 10:41 51°14.062 2°45.029 14.7 141 10.9 100340 83
2002-11-12 10:42 51°14.128 2°45.314 10.4 138 10.9 100340 83
2002-11-12 10:43 51°14.197 2°45.599 8.8 153 10.9 100340 83
2002-11-12 10:44 51°14.264 2°45.887 11.9 152 10.9 100340 83
2002-11-12 10:45 51°14.33 2°46.172 14.9 147 11 100340 83
2002-11-12 10:46 51°14.397 2°46.455 11.8 151 10.9 100340 83
2002-11-12 10:47 51°14.462 2°46.739 9.9 149 10.9 100340 82
2002-11-12 10:48 51°14.527 2°47.026 10 147 10.9 100330 82
2002-11-12 10:49 51°14.592 2°47.311 11.6 156 11 100330 82
2002-11-12 10:50 51°14.655 2°47.594 13.1 149 11 100350 83
2002-11-12 10:51 51°14.719 2°47.879 12 144 11 100330 83
2002-11-12 10:52 51°14.781 2°48.164 12 155 11 100320 83
2002-11-12 10:53 51°14.846 2°48.453 11.8 149 10.9 100320 82
2002-11-12 10:54 51°14.913 2°48.74 14.8 139 11 100320 82
2002-11-12 10:55 51°14.977 2°49.026 13 143 10.9 100320 82
2002-11-12 10:56 51°15.034 2°49.274 13.5 146 10.9 100310 82
2002-11-12 10:57 51°15.08 2°49.474 11.2 140 11 100310 83
2002-11-12 10:58 51°15.118 2°49.642 12.1 136 10.9 100310 82
2002-11-12 10:59 51°15.148 2°49.768 10.8 125 10.9 100310 83
2002-11-12 11:00 51°15.179 2°49.881 12.2 125 11 100320 83
2002-11-12 11:01 51°15.227 2°50.059 11.6 148 10.9 100310 83
2002-11-12 11:02 51°15.292 2°50.331 12.2 162 10.9 100300 82
2002-11-12 11:03 51°15.321 2°50.624 14.9 163 11 100300 83
2002-11-12 11:04 51°15.321 2°50.919 14.4 167 10.9 100290 82
2002-11-12 11:05 51°15.304 2°51.209 16.7 168 11 100280 82
2002-11-12 11:06 51°15.281 2°51.499 15.2 179 11 100280 83
2002-11-12 11:07 51°15.249 2°51.783 14.3 176 10.9 100270 82
2002-11-12 11:08 51°15.199 2°52.063 13.2 184 11 100290 82
2002-11-12 11:09 51°15.127 2°52.326 17.8 179 11 100280 82
2002-11-12 11:10 51°15.043 2°52.576 14.4 178 11.1 100280 82
2002-11-12 11:11 51°14.966 2°52.834 13.1 184 11 100270 82
2002-11-12 11:12 51°14.886 2°53.091 12.4 189 11 100260 81
2002-11-12 11:13 51°14.815 2°53.358 11.3 186 11 100280 82
2002-11-12 11:14 51°14.749 2°53.626 10.8 187 11 100260 81
2002-11-12 11:15 51°14.681 2°53.89 11.6 188 11.1 100250 81
2002-11-12 11:16 51°14.619 2°54.161 11.3 182 11 100280 80
2002-11-12 11:17 51°14.556 2°54.422 14.1 198 11.1 100270 81
2002-11-12 11:18 51°14.491 2°54.668 10 181 11.1 100270 80
2002-11-12 11:19 51°14.417 2°54.906 9.1 180 11.1 100280 80
2002-11-12 11:20 51°14.335 2°55.124 5.8 199 11.1 100300 80
2002-11-12 11:21 51°14.263 2°55.262 7 196 11.1 100310 80
2002-11-12 11:22 51°14.2 2°55.348 10.5 229 11.2 100310 80
2002-11-12 11:23 51°14.137 2°55.404 8.9 229 11.2 100300 80
2002-11-12 11:24 51°14.073 2°55.452 9.9 224 11.3 100300 80
2002-11-12 11:25 51°14.005 2°55.499 9.8 224 11.3 100310 79